Moseley, Virginia
Current Conditions -  °F | °C
As of 12:54 AM on Sunday 26 Oct 2014 (Local Time) from KRIC Reporting Station
Clear Clear  
Wind Chill: 59°   Ceiling: Unl
Heat Index: 59°   Visibility: 10mi
Dew Point: 44°   Wind: 5mph
Humidity: 58%   Direction: 250°WSW
Pressure: 29.75"   Gusts: NA
Location:  37.48°N, 77.78°W
Report Text: KRIC 260454Z 25004KT 10SM CLR 15/07 A2975 RMK AO2 SLP078 T01500067 402220044
Loading
Personal Weather Stations






























Interactive Weather Map
Tropical Storm Tracking
New forecast layout! Learn more

10-Day Weather Forecast

Advertisements
Track Severe Weather on mobile